Time,TemperatureF,DewpointF,PressureIn,WindDirection,WindDirectionDegrees,WindSpeedMPH,WindSpeedGustMPH,Humidity,HourlyPrecipIn,Conditions,Clouds,dailyrainin,SoftwareType,DateUTC
2013-03-09 00:03:00,32.4,31.1,30.26,NNE,26,0.0,0.0,95,0.00,,,0.00,Wunderground v.1.15,2013-03-09 08:03:00,
2013-03-09 00:08:00,32.4,31.1,30.26,NNE,26,0.0,0.0,95,0.00,,,0.00,Wunderground v.1.15,2013-03-09 08:08:00,
2013-03-09 00:14:00,32.4,31.4,30.26,NNE,26,0.0,0.0,96,0.00,,,0.00,Wunderground v.1.15,2013-03-09 08:14:00,
2013-03-09 00:19:00,32.3,31.3,30.27,NNE,26,0.0,0.0,96,0.00,,,0.00,Wunderground v.1.15,2013-03-09 08:19:00,
2013-03-09 00:24:00,32.3,31.3,30.27,NNE,26,0.0,0.0,96,0.00,,,0.00,Wunderground v.1.15,2013-03-09 08:24:00,
2013-03-09 00:30:00,32.1,31.1,30.27,NNE,26,0.0,0.0,96,0.00,,,0.00,Wunderground v.1.15,2013-03-09 08:30:00,
2013-03-09 00:35:00,32.1,31.1,30.27,NNE,26,0.0,0.0,96,0.00,,,0.00,Wunderground v.1.15,2013-03-09 08:35:00,
2013-03-09 00:40:00,32.0,31.0,30.27,NNE,26,0.0,0.0,96,0.00,,,0.00,Wunderground v.1.15,2013-03-09 08:40:00,
2013-03-09 00:45:00,32.0,31.0,30.27,NNE,26,0.0,0.0,96,0.00,,,0.00,Wunderground v.1.15,2013-03-09 08:45:00,
2013-03-09 00:51:00,32.0,31.0,30.27,NNE,26,0.0,0.0,96,0.00,,,0.00,Wunderground v.1.15,2013-03-09 08:51:00,
2013-03-09 00:56:00,31.9,30.9,30.27,NNE,26,0.0,0.0,96,0.00,,,0.00,Wunderground v.1.15,2013-03-09 08:56:00,
2013-03-09 01:01:00,31.8,30.8,30.28,NNE,26,0.0,0.0,96,0.00,,,0.00,Wunderground v.1.15,2013-03-09 09:01:00,
2013-03-09 01:07:00,31.7,30.7,30.28,NNE,26,0.0,0.0,96,0.00,,,0.00,Wunderground v.1.15,2013-03-09 09:07:00,
2013-03-09 01:12:00,31.6,30.6,30.28,NNE,26,0.0,0.0,96,0.00,,,0.00,Wunderground v.1.15,2013-03-09 09:12:00,
2013-03-09 01:17:00,31.5,30.5,30.28,NNE,26,0.0,0.0,96,0.00,,,0.00,Wunderground v.1.15,2013-03-09 09:17:00,
2013-03-09 01:22:00,31.4,30.4,30.28,NNE,26,0.0,0.0,96,0.00,,,0.00,Wunderground v.1.15,2013-03-09 09:22:00,
2013-03-09 01:28:00,31.4,30.4,30.28,NNE,26,0.0,0.0,96,0.00,,,0.00,Wunderground v.1.15,2013-03-09 09:28:00,
2013-03-09 01:34:00,31.4,30.4,30.28,NNE,26,0.0,0.0,96,0.00,,,0.00,Wunderground v.1.15,2013-03-09 09:34:00,
2013-03-09 01:39:00,31.3,30.3,30.28,NNE,26,0.0,0.0,96,0.00,,,0.00,Wunderground v.1.15,2013-03-09 09:39:00,
2013-03-09 01:44:00,31.2,30.2,30.28,NNE,26,0.0,0.0,96,0.00,,,0.00,Wunderground v.1.15,2013-03-09 09:44:00,
2013-03-09 01:50:00,31.1,30.1,30.29,NNE,26,0.0,1.0,96,0.00,,,0.00,Wunderground v.1.15,2013-03-09 09:50:00,
2013-03-09 01:56:00,30.9,29.9,30.29,NNE,26,0.0,0.0,96,0.00,,,0.00,Wunderground v.1.15,2013-03-09 09:56:00,
2013-03-09 02:01:00,30.8,29.8,30.29,NNE,26,0.0,0.0,96,0.00,,,0.00,Wunderground v.1.15,2013-03-09 10:01:00,
2013-03-09 02:07:00,30.7,29.7,30.29,NNE,26,0.0,0.0,96,0.00,,,0.00,Wunderground v.1.15,2013-03-09 10:07:00,
2013-03-09 02:13:00,30.5,29.5,30.29,NNE,26,0.0,0.0,96,0.00,,,0.00,Wunderground v.1.15,2013-03-09 10:13:00,
2013-03-09 02:18:00,30.4,29.4,30.29,NNE,26,0.0,0.0,96,0.00,,,0.00,Wunderground v.1.15,2013-03-09 10:18:00,
2013-03-09 02:23:00,30.4,29.4,30.30,NNE,26,0.0,0.0,96,0.00,,,0.00,Wunderground v.1.15,2013-03-09 10:23:00,
2013-03-09 02:29:00,30.4,29.4,30.30,NNE,26,0.0,0.0,96,0.00,,,0.00,Wunderground v.1.15,2013-03-09 10:29:00,
2013-03-09 02:35:00,30.3,29.3,30.30,NNE,26,0.0,0.0,96,0.00,,,0.00,Wunderground v.1.15,2013-03-09 10:35:00,
2013-03-09 02:40:00,30.2,29.2,30.30,NNE,26,0.0,0.0,96,0.00,,,0.00,Wunderground v.1.15,2013-03-09 10:40:00,
2013-03-09 02:45:00,30.1,29.1,30.30,NNE,26,0.0,0.0,96,0.00,,,0.00,Wunderground v.1.15,2013-03-09 10:45:00,
2013-03-09 02:51:00,30.0,29.0,30.30,NNE,26,0.0,0.0,96,0.00,,,0.00,Wunderground v.1.15,2013-03-09 10:51:00,
2013-03-09 02:57:00,30.1,29.1,30.30,NNE,26,0.0,0.0,96,0.00,,,0.00,Wunderground v.1.15,2013-03-09 10:57:00,
2013-03-09 03:02:00,30.2,29.2,30.30,NNE,26,0.0,0.0,96,0.00,,,0.00,Wunderground v.1.15,2013-03-09 11:02:00,
2013-03-09 03:08:00,30.2,29.2,30.30,NNE,26,0.0,2.0,96,0.00,,,0.00,Wunderground v.1.15,2013-03-09 11:08:00,
2013-03-09 03:14:00,30.2,29.2,30.30,NNE,26,0.0,0.0,96,0.00,,,0.00,Wunderground v.1.15,2013-03-09 11:14:00,
2013-03-09 03:19:00,30.2,29.2,30.31,NNE,26,0.0,0.0,96,0.00,,,0.00,Wunderground v.1.15,2013-03-09 11:19:00,
2013-03-09 03:24:00,30.1,29.1,30.31,NNE,26,0.0,0.0,96,0.00,,,0.00,Wunderground v.1.15,2013-03-09 11:24:00,
2013-03-09 03:30:00,30.0,29.0,30.31,NNE,26,0.0,0.0,96,0.00,,,0.00,Wunderground v.1.15,2013-03-09 11:30:00,
2013-03-09 03:35:00,29.9,28.9,30.31,NNE,26,0.0,0.0,96,0.00,,,0.00,Wunderground v.1.15,2013-03-09 11:35:00,
2013-03-09 03:40:00,29.8,28.8,30.31,NNE,26,0.0,0.0,96,0.00,,,0.00,Wunderground v.1.15,2013-03-09 11:40:00,
2013-03-09 03:45:00,29.7,28.7,30.31,NNE,26,0.0,0.0,96,0.00,,,0.00,Wunderground v.1.15,2013-03-09 11:45:00,
2013-03-09 03:51:00,29.6,28.6,30.31,NNE,26,0.0,0.0,96,0.00,,,0.00,Wunderground v.1.15,2013-03-09 11:51:00,
2013-03-09 03:56:00,29.6,28.6,30.32,NNE,26,0.0,0.0,96,0.00,,,0.00,Wunderground v.1.15,2013-03-09 11:56:00,
2013-03-09 04:01:00,29.6,28.6,30.32,NNE,26,0.0,0.0,96,0.00,,,0.00,Wunderground v.1.15,2013-03-09 12:01:00,
2013-03-09 04:07:00,29.5,28.5,30.32,NNE,26,0.0,0.0,96,0.00,,,0.00,Wunderground v.1.15,2013-03-09 12:07:00,
2013-03-09 04:12:00,29.4,28.4,30.32,NNE,26,0.0,0.0,96,0.00,,,0.00,Wunderground v.1.15,2013-03-09 12:12:00,
2013-03-09 04:17:00,29.4,28.4,30.32,NNE,26,0.0,0.0,96,0.00,,,0.00,Wunderground v.1.15,2013-03-09 12:17:00,
2013-03-09 04:23:00,29.3,28.3,30.33,NNE,26,0.0,0.0,96,0.00,,,0.00,Wunderground v.1.15,2013-03-09 12:23:00,
2013-03-09 04:28:00,29.2,28.2,30.33,NNE,26,0.0,0.0,96,0.00,,,0.00,Wunderground v.1.15,2013-03-09 12:28:00,
2013-03-09 04:33:00,29.2,28.2,30.33,NNE,26,0.0,0.0,96,0.00,,,0.00,Wunderground v.1.15,2013-03-09 12:33:00,
2013-03-09 04:38:00,29.1,28.1,30.33,NNE,26,0.0,2.0,96,0.00,,,0.00,Wunderground v.1.15,2013-03-09 12:38:00,
2013-03-09 04:43:00,29.0,28.0,30.33,NNE,26,1.0,1.0,96,0.00,,,0.00,Wunderground v.1.15,2013-03-09 12:43:00,
2013-03-09 04:49:00,29.0,28.0,30.33,NNE,26,0.0,1.0,96,0.00,,,0.00,Wunderground v.1.15,2013-03-09 12:49:00,
2013-03-09 04:54:00,29.0,28.0,30.34,NNE,26,1.0,2.0,96,0.00,,,0.00,Wunderground v.1.15,2013-03-09 12:54:00,
2013-03-09 04:59:00,28.9,27.9,30.34,NNE,26,1.0,2.0,96,0.00,,,0.00,Wunderground v.1.15,2013-03-09 12:59:00,
2013-03-09 05:04:00,28.9,27.9,30.34,NNE,26,0.0,1.0,96,0.00,,,0.00,Wunderground v.1.15,2013-03-09 13:04:00,
2013-03-09 05:10:00,28.9,27.9,30.34,NNE,26,0.0,1.0,96,0.00,,,0.00,Wunderground v.1.15,2013-03-09 13:10:00,
2013-03-09 05:15:00,28.9,27.9,30.34,NNE,26,0.0,0.0,96,0.00,,,0.00,Wunderground v.1.15,2013-03-09 13:15:00,
2013-03-09 05:21:00,28.8,27.8,30.34,NNE,26,0.0,0.0,96,0.00,,,0.00,Wunderground v.1.15,2013-03-09 13:21:00,
2013-03-09 05:27:00,28.8,27.8,30.34,NNE,26,0.0,1.0,96,0.00,,,0.00,Wunderground v.1.15,2013-03-09 13:27:00,
2013-03-09 05:32:00,28.7,27.7,30.34,NNE,26,0.0,0.0,96,0.00,,,0.00,Wunderground v.1.15,2013-03-09 13:32:00,
2013-03-09 05:38:00,28.7,28.0,30.34,NNE,26,0.0,0.0,97,0.00,,,0.00,Wunderground v.1.15,2013-03-09 13:38:00,
2013-03-09 05:43:00,28.6,27.9,30.34,NNE,26,0.0,0.0,97,0.00,,,0.00,Wunderground v.1.15,2013-03-09 13:43:00,
2013-03-09 05:48:00,28.6,27.9,30.34,NNE,26,0.0,0.0,97,0.00,,,0.00,Wunderground v.1.15,2013-03-09 13:48:00,
2013-03-09 05:53:00,28.5,27.8,30.34,NNE,26,0.0,0.0,97,0.00,,,0.00,Wunderground v.1.15,2013-03-09 13:53:00,
2013-03-09 05:59:00,28.5,27.5,30.34,NNE,26,0.0,0.0,96,0.00,,,0.00,Wunderground v.1.15,2013-03-09 13:59:00,
2013-03-09 06:04:00,28.5,27.5,30.35,NNE,26,0.0,0.0,96,0.00,,,0.00,Wunderground v.1.15,2013-03-09 14:04:00,
2013-03-09 06:09:00,28.6,27.9,30.35,NNE,26,0.0,0.0,97,0.00,,,0.00,Wunderground v.1.15,2013-03-09 14:09:00,
2013-03-09 06:15:00,28.6,27.9,30.35,NNE,26,0.0,0.0,97,0.00,,,0.00,Wunderground v.1.15,2013-03-09 14:15:00,
2013-03-09 06:20:00,28.6,27.9,30.35,NNE,26,0.0,0.0,97,0.00,,,0.00,Wunderground v.1.15,2013-03-09 14:20:00,
2013-03-09 06:25:00,28.5,27.8,30.35,NNE,26,0.0,0.0,97,0.00,,,0.00,Wunderground v.1.15,2013-03-09 14:25:00,
2013-03-09 06:31:00,28.5,27.8,30.36,NNE,26,0.0,0.0,97,0.00,,,0.00,Wunderground v.1.15,2013-03-09 14:31:00,
2013-03-09 06:36:00,28.5,27.8,30.36,NNE,26,0.0,0.0,97,0.00,,,0.00,Wunderground v.1.15,2013-03-09 14:36:00,
2013-03-09 06:41:00,28.4,27.7,30.36,NNE,26,0.0,0.0,97,0.00,,,0.00,Wunderground v.1.15,2013-03-09 14:41:00,
2013-03-09 06:46:00,28.3,27.3,30.36,NNE,26,0.0,0.0,96,0.00,,,0.00,Wunderground v.1.15,2013-03-09 14:46:00,
2013-03-09 06:52:00,28.3,27.6,30.37,NNE,26,0.0,0.0,97,0.00,,,0.00,Wunderground v.1.15,2013-03-09 14:52:00,
2013-03-09 06:57:00,28.3,27.6,30.37,NNE,26,0.0,2.0,97,0.00,,,0.00,Wunderground v.1.15,2013-03-09 14:57:00,
2013-03-09 07:03:00,28.5,27.8,30.38,NNE,26,1.0,1.0,97,0.00,,,0.00,Wunderground v.1.15,2013-03-09 15:03:00,
2013-03-09 07:09:00,28.6,27.9,30.38,NNE,26,0.0,1.0,97,0.00,,,0.00,Wunderground v.1.15,2013-03-09 15:09:00,
2013-03-09 07:14:00,28.6,27.9,30.38,NNE,26,0.0,0.0,97,0.00,,,0.00,Wunderground v.1.15,2013-03-09 15:14:00,
2013-03-09 07:19:00,28.7,28.0,30.39,NNE,26,0.0,0.0,97,0.00,,,0.00,Wunderground v.1.15,2013-03-09 15:19:00,
2013-03-09 07:25:00,28.7,28.0,30.39,NNE,26,0.0,0.0,97,0.00,,,0.00,Wunderground v.1.15,2013-03-09 15:25:00,
2013-03-09 07:30:00,28.8,28.1,30.39,NNE,26,0.0,0.0,97,0.00,,,0.00,Wunderground v.1.15,2013-03-09 15:30:00,
2013-03-09 07:35:00,28.9,28.2,30.40,NNE,26,0.0,0.0,97,0.00,,,0.00,Wunderground v.1.15,2013-03-09 15:35:00,
2013-03-09 07:40:00,28.9,28.2,30.40,NNE,26,0.0,0.0,97,0.00,,,0.00,Wunderground v.1.15,2013-03-09 15:40:00,
2013-03-09 07:46:00,29.0,28.3,30.41,NNE,26,0.0,0.0,97,0.00,,,0.00,Wunderground v.1.15,2013-03-09 15:46:00,
2013-03-09 07:51:00,29.3,28.6,30.41,NNE,26,0.0,0.0,97,0.00,,,0.00,Wunderground v.1.15,2013-03-09 15:51:00,
2013-03-09 07:56:00,29.7,29.0,30.41,NNE,26,0.0,0.0,97,0.00,,,0.00,Wunderground v.1.15,2013-03-09 15:56:00,
2013-03-09 08:02:00,30.0,29.3,30.41,NNE,26,0.0,0.0,97,0.00,,,0.00,Wunderground v.1.15,2013-03-09 16:02:00,
2013-03-09 08:07:00,30.3,29.8,30.41,NNE,26,0.0,0.0,98,0.00,,,0.00,Wunderground v.1.15,2013-03-09 16:07:00,
2013-03-09 08:13:00,30.6,29.9,30.42,NNE,26,0.0,0.0,97,0.00,,,0.00,Wunderground v.1.15,2013-03-09 16:13:00,
2013-03-09 08:18:00,30.8,30.0,30.42,NNE,26,0.0,0.0,97,0.00,,,0.00,Wunderground v.1.15,2013-03-09 16:18:00,
2013-03-09 08:23:00,31.1,30.6,30.42,NNE,26,0.0,1.0,98,0.00,,,0.00,Wunderground v.1.15,2013-03-09 16:23:00,
2013-03-09 08:28:00,31.5,31.0,30.42,NNE,26,0.0,1.0,98,0.00,,,0.00,Wunderground v.1.15,2013-03-09 16:28:00,
2013-03-09 08:34:00,32.6,32.1,30.42,NNE,26,0.0,0.0,98,0.00,,,0.00,Wunderground v.1.15,2013-03-09 16:34:00,
2013-03-09 08:39:00,34.4,33.9,30.42,NNE,26,0.0,0.0,98,0.00,,,0.00,Wunderground v.1.15,2013-03-09 16:39:00,
2013-03-09 08:44:00,36.0,35.5,30.43,NNE,26,0.0,0.0,98,0.00,,,0.00,Wunderground v.1.15,2013-03-09 16:44:00,
2013-03-09 08:49:00,37.0,36.5,30.43,NNE,26,0.0,0.0,98,0.00,,,0.00,Wunderground v.1.15,2013-03-09 16:49:00,
2013-03-09 08:55:00,37.9,37.4,30.43,NNE,29,0.0,1.0,98,0.00,,,0.00,Wunderground v.1.15,2013-03-09 16:55:00,
2013-03-09 09:00:00,38.8,38.3,30.43,NNE,29,0.0,1.0,98,0.00,,,0.00,Wunderground v.1.15,2013-03-09 17:00:00,
2013-03-09 09:05:00,39.6,39.1,30.43,NNE,29,0.0,0.0,98,0.00,,,0.00,Wunderground v.1.15,2013-03-09 17:05:00,
2013-03-09 09:10:00,40.0,39.5,30.43,ENE,65,1.0,3.0,98,0.00,,,0.00,Wunderground v.1.15,2013-03-09 17:10:00,
2013-03-09 09:16:00,40.7,40.2,30.43,ENE,65,1.0,1.0,98,0.00,,,0.00,Wunderground v.1.15,2013-03-09 17:16:00,
2013-03-09 09:21:00,41.4,40.9,30.43,ENE,72,0.0,3.0,98,0.00,,,0.00,Wunderground v.1.15,2013-03-09 17:21:00,
2013-03-09 09:26:00,42.2,41.7,30.42,NE,51,1.0,3.0,98,0.00,,,0.00,Wunderground v.1.15,2013-03-09 17:26:00,
2013-03-09 09:32:00,43.0,41.9,30.42,ENE,77,2.0,4.0,96,0.00,,,0.00,Wunderground v.1.15,2013-03-09 17:32:00,
2013-03-09 09:37:00,43.8,41.6,30.43,East,88,2.0,4.0,92,0.00,,,0.00,Wunderground v.1.15,2013-03-09 17:37:00,
2013-03-09 09:42:00,44.9,42.4,30.43,East,88,1.0,1.0,91,0.00,,,0.00,Wunderground v.1.15,2013-03-09 17:42:00,
2013-03-09 09:48:00,45.9,41.9,30.43,East,88,0.0,1.0,86,0.00,,,0.00,Wunderground v.1.15,2013-03-09 17:48:00,
2013-03-09 09:53:00,46.4,41.5,30.43,East,88,0.0,0.0,83,0.00,,,0.00,Wunderground v.1.15,2013-03-09 17:53:00,
2013-03-09 09:58:00,47.4,42.8,30.43,East,88,0.0,0.0,84,0.00,,,0.00,Wunderground v.1.15,2013-03-09 17:58:00,
2013-03-09 10:04:00,48.7,42.1,30.43,ESE,120,0.0,1.0,78,0.00,,,0.00,Wunderground v.1.15,2013-03-09 18:04:00,
2013-03-09 10:10:00,49.0,41.8,30.43,ESE,121,1.0,1.0,76,0.00,,,0.00,Wunderground v.1.15,2013-03-09 18:10:00,
2013-03-09 10:15:00,49.6,43.4,30.43,SSE,159,0.0,2.0,79,0.00,,,0.00,Wunderground v.1.15,2013-03-09 18:15:00,
2013-03-09 10:20:00,50.6,43.0,30.43,WNW,294,0.0,3.0,75,0.00,,,0.00,Wunderground v.1.15,2013-03-09 18:20:00,
2013-03-09 10:26:00,52.0,43.6,30.43,WNW,302,1.0,3.0,73,0.00,,,0.00,Wunderground v.1.15,2013-03-09 18:26:00,
2013-03-09 10:31:00,52.9,43.4,30.43,WNW,290,1.0,2.0,70,0.00,,,0.00,Wunderground v.1.15,2013-03-09 18:31:00,
2013-03-09 10:36:00,53.6,43.3,30.43,WNW,289,2.0,4.0,68,0.00,,,0.00,Wunderground v.1.15,2013-03-09 18:36:00,
2013-03-09 10:41:00,54.2,42.7,30.43,WNW,299,2.0,2.0,65,0.00,,,0.00,Wunderground v.1.15,2013-03-09 18:41:00,
2013-03-09 10:47:00,54.8,42.9,30.43,West,279,2.0,3.0,64,0.00,,,0.00,Wunderground v.1.15,2013-03-09 18:47:00,
2013-03-09 10:53:00,55.5,43.9,30.43,WNW,290,2.0,4.0,65,0.00,,,0.00,Wunderground v.1.15,2013-03-09 18:53:00,
2013-03-09 10:59:00,56.1,43.7,30.44,West,273,3.0,6.0,63,0.00,,,0.00,Wunderground v.1.15,2013-03-09 18:59:00,
2013-03-09 11:04:00,56.3,43.4,30.44,NW,315,3.0,5.0,62,0.00,,,0.00,Wunderground v.1.15,2013-03-09 19:04:00,
2013-03-09 11:09:00,56.6,43.3,30.44,North,5,3.0,6.0,61,0.00,,,0.00,Wunderground v.1.15,2013-03-09 19:09:00,
2013-03-09 11:14:00,56.6,42.9,30.44,WNW,285,4.0,6.0,60,0.00,,,0.00,Wunderground v.1.15,2013-03-09 19:14:00,
2013-03-09 11:20:00,56.7,43.0,30.45,WSW,258,4.0,6.0,60,0.00,,,0.00,Wunderground v.1.15,2013-03-09 19:20:00,
2013-03-09 11:25:00,56.9,43.2,30.45,West,268,2.0,3.0,60,0.00,,,0.00,Wunderground v.1.15,2013-03-09 19:25:00,
2013-03-09 11:30:00,56.8,43.1,30.45,SW,225,1.0,7.0,60,0.00,,,0.00,Wunderground v.1.15,2013-03-09 19:30:00,
2013-03-09 11:36:00,55.9,43.1,30.45,SW,219,3.0,7.0,62,0.00,,,0.00,Wunderground v.1.15,2013-03-09 19:36:00,
2013-03-09 11:41:00,55.2,43.6,30.46,NW,318,4.0,4.0,65,0.00,,,0.00,Wunderground v.1.15,2013-03-09 19:41:00,
2013-03-09 11:46:00,55.5,43.9,30.46,WSW,254,3.0,6.0,65,0.00,,,0.00,Wunderground v.1.15,2013-03-09 19:46:00,
2013-03-09 11:52:00,56.1,43.3,30.46,WNW,291,4.0,5.0,62,0.00,,,0.00,Wunderground v.1.15,2013-03-09 19:52:00,
2013-03-09 11:57:00,56.3,43.0,30.46,NE,49,4.0,5.0,61,0.00,,,0.00,Wunderground v.1.15,2013-03-09 19:57:00,
2013-03-09 12:02:00,56.7,43.0,30.46,SW,235,3.0,7.0,60,0.00,,,0.00,Wunderground v.1.15,2013-03-09 20:02:00,
2013-03-09 12:08:00,56.6,42.0,30.46,NW,325,5.0,8.0,58,0.00,,,0.00,Wunderground v.1.15,2013-03-09 20:08:00,
2013-03-09 12:13:00,56.2,42.5,30.46,NE,38,4.0,5.0,60,0.00,,,0.00,Wunderground v.1.15,2013-03-09 20:13:00,
2013-03-09 12:18:00,55.7,42.9,30.46,NW,326,4.0,6.0,62,0.00,,,0.00,Wunderground v.1.15,2013-03-09 20:18:00,
2013-03-09 12:23:00,55.8,42.1,30.46,NW,314,3.0,6.0,60,0.00,,,0.00,Wunderground v.1.15,2013-03-09 20:23:00,
2013-03-09 12:29:00,56.5,43.6,30.46,NW,319,3.0,6.0,62,0.00,,,0.00,Wunderground v.1.15,2013-03-09 20:29:00,
2013-03-09 12:34:00,57.0,42.4,30.46,WNW,288,2.0,4.0,58,0.00,,,0.00,Wunderground v.1.15,2013-03-09 20:34:00,
2013-03-09 12:39:00,57.4,42.3,30.46,NNE,12,3.0,4.0,57,0.00,,,0.00,Wunderground v.1.15,2013-03-09 20:39:00,
2013-03-09 12:45:00,57.3,43.1,30.46,North,350,2.0,4.0,59,0.00,,,0.00,Wunderground v.1.15,2013-03-09 20:45:00,
2013-03-09 12:50:00,57.4,42.3,30.46,West,271,2.0,4.0,57,0.00,,,0.00,Wunderground v.1.15,2013-03-09 20:50:00,
2013-03-09 12:55:00,57.9,42.3,30.46,WNW,284,1.0,6.0,56,0.00,,,0.00,Wunderground v.1.15,2013-03-09 20:55:00,
2013-03-09 13:00:00,58.4,42.3,30.45,WNW,296,2.0,6.0,55,0.00,,,0.00,Wunderground v.1.15,2013-03-09 21:00:00,
2013-03-09 13:05:00,59.0,41.4,30.45,NW,314,3.0,5.0,52,0.00,,,0.00,Wunderground v.1.15,2013-03-09 21:05:00,
2013-03-09 13:11:00,59.7,41.5,30.45,West,266,2.0,2.0,51,0.00,,,0.00,Wunderground v.1.15,2013-03-09 21:11:00,
2013-03-09 13:16:00,60.2,41.5,30.45,SW,228,1.0,2.0,50,0.00,,,0.00,Wunderground v.1.15,2013-03-09 21:16:00,
2013-03-09 13:21:00,60.4,41.1,30.45,NW,320,1.0,3.0,49,0.00,,,0.00,Wunderground v.1.15,2013-03-09 21:21:00,
2013-03-09 13:27:00,60.5,42.3,30.45,NW,325,1.0,6.0,51,0.00,,,0.00,Wunderground v.1.15,2013-03-09 21:27:00,
2013-03-09 13:32:00,60.4,41.1,30.45,NW,309,3.0,4.0,49,0.00,,,0.00,Wunderground v.1.15,2013-03-09 21:32:00,
2013-03-09 13:38:00,60.4,41.1,30.44,NW,323,4.0,7.0,49,0.00,,,0.00,Wunderground v.1.15,2013-03-09 21:38:00,
2013-03-09 13:43:00,60.5,41.8,30.44,WNW,300,3.0,4.0,50,0.00,,,0.00,Wunderground v.1.15,2013-03-09 21:43:00,
2013-03-09 13:48:00,60.8,41.0,30.44,NW,307,3.0,6.0,48,0.00,,,0.00,Wunderground v.1.15,2013-03-09 21:48:00,
2013-03-09 13:54:00,60.9,41.1,30.44,West,279,2.0,4.0,48,0.00,,,0.00,Wunderground v.1.15,2013-03-09 21:54:00,
2013-03-09 14:00:00,60.9,41.1,30.44,WSW,258,3.0,6.0,48,0.00,,,0.00,Wunderground v.1.15,2013-03-09 22:00:00,
2013-03-09 14:05:00,60.7,39.8,30.44,NNW,328,4.0,5.0,46,0.00,,,0.00,Wunderground v.1.15,2013-03-09 22:05:00,
2013-03-09 14:10:00,60.4,41.7,30.44,SW,216,4.0,5.0,50,0.00,,,0.00,Wunderground v.1.15,2013-03-09 22:10:00,
2013-03-09 14:16:00,59.8,39.0,30.44,NW,319,4.0,6.0,46,0.00,,,0.00,Wunderground v.1.15,2013-03-09 22:16:00,
2013-03-09 14:21:00,59.5,39.8,30.44,SW,225,4.0,4.0,48,0.00,,,0.00,Wunderground v.1.15,2013-03-09 22:21:00,
2013-03-09 14:26:00,59.2,40.0,30.44,WNW,297,3.0,6.0,49,0.00,,,0.00,Wunderground v.1.15,2013-03-09 22:26:00,
2013-03-09 14:31:00,58.8,38.6,30.44,NW,305,3.0,6.0,47,0.00,,,0.00,Wunderground v.1.15,2013-03-09 22:31:00,
2013-03-09 14:37:00,58.1,38.5,30.44,NW,319,3.0,6.0,48,0.00,,,0.00,Wunderground v.1.15,2013-03-09 22:37:00,
2013-03-09 14:42:00,57.2,38.2,30.44,WNW,282,4.0,6.0,49,0.00,,,0.00,Wunderground v.1.15,2013-03-09 22:42:00,
2013-03-09 14:48:00,56.4,38.0,30.44,NW,316,4.0,6.0,50,0.00,,,0.00,Wunderground v.1.15,2013-03-09 22:48:00,
2013-03-09 14:53:00,55.8,38.4,30.44,NW,309,4.0,9.0,52,0.00,,,0.00,Wunderground v.1.15,2013-03-09 22:53:00,
2013-03-09 14:58:00,55.3,38.4,30.45,NW,314,5.0,9.0,53,0.00,,,0.00,Wunderground v.1.15,2013-03-09 22:58:00,
2013-03-09 15:03:00,55.0,38.6,30.45,WSW,256,4.0,5.0,54,0.00,,,0.00,Wunderground v.1.15,2013-03-09 23:03:00,
2013-03-09 15:09:00,54.5,37.7,30.45,West,269,5.0,6.0,53,0.00,,,0.00,Wunderground v.1.15,2013-03-09 23:09:00,
2013-03-09 15:15:00,54.1,37.3,30.44,NW,321,4.0,7.0,53,0.00,,,0.00,Wunderground v.1.15,2013-03-09 23:15:00,
2013-03-09 15:20:00,53.8,36.6,30.44,NNW,345,4.0,7.0,52,0.00,,,0.00,Wunderground v.1.15,2013-03-09 23:20:00,
2013-03-09 15:25:00,53.5,36.3,30.44,WNW,297,3.0,4.0,52,0.00,,,0.00,Wunderground v.1.15,2013-03-09 23:25:00,
2013-03-09 15:31:00,53.3,36.6,30.44,NW,304,4.0,9.0,53,0.00,,,0.00,Wunderground v.1.15,2013-03-09 23:31:00,
2013-03-09 15:37:00,53.3,36.1,30.44,SW,236,5.0,9.0,52,0.00,,,0.00,Wunderground v.1.15,2013-03-09 23:37:00,
2013-03-09 15:43:00,53.8,36.6,30.45,SW,229,4.0,4.0,52,0.00,,,0.00,Wunderground v.1.15,2013-03-09 23:43:00,
2013-03-09 15:48:00,54.3,36.0,30.44,SSW,200,5.0,10.0,50,0.00,,,0.00,Wunderground v.1.15,2013-03-09 23:48:00,
2013-03-09 15:53:00,54.4,35.6,30.44,NW,326,5.0,8.0,49,0.00,,,0.00,Wunderground v.1.15,2013-03-09 23:53:00,
2013-03-09 15:58:00,54.6,36.3,30.44,West,264,6.0,9.0,50,0.00,,,0.00,Wunderground v.1.15,2013-03-09 23:58:00,
2013-03-09 16:03:00,54.8,36.5,30.44,WNW,296,6.0,6.0,50,0.00,,,0.00,Wunderground v.1.15,2013-03-10 00:03:00,
2013-03-09 16:09:00,54.9,37.6,30.44,WNW,292,5.0,6.0,52,0.00,,,0.00,Wunderground v.1.15,2013-03-10 00:09:00,
2013-03-09 16:14:00,54.9,37.1,30.44,WNW,284,4.0,6.0,51,0.00,,,0.00,Wunderground v.1.15,2013-03-10 00:14:00,
2013-03-09 16:19:00,54.8,36.0,30.44,NW,309,4.0,7.0,49,0.00,,,0.00,Wunderground v.1.15,2013-03-10 00:19:00,
2013-03-09 16:24:00,54.6,36.8,30.44,NW,309,4.0,5.0,51,0.00,,,0.00,Wunderground v.1.15,2013-03-10 00:24:00,
2013-03-09 16:29:00,54.3,36.5,30.44,West,267,3.0,6.0,51,0.00,,,0.00,Wunderground v.1.15,2013-03-10 00:29:00,
2013-03-09 16:35:00,54.0,35.3,30.45,SW,232,5.0,10.0,49,0.00,,,0.00,Wunderground v.1.15,2013-03-10 00:35:00,
2013-03-09 16:40:00,53.6,34.9,30.45,SW,223,5.0,10.0,49,0.00,,,0.00,Wunderground v.1.15,2013-03-10 00:40:00,
2013-03-09 16:45:00,53.4,36.2,30.45,NW,319,3.0,4.0,52,0.00,,,0.00,Wunderground v.1.15,2013-03-10 00:45:00,
2013-03-09 16:50:00,53.1,34.9,30.45,West,262,2.0,7.0,50,0.00,,,0.00,Wunderground v.1.15,2013-03-10 00:50:00,
2013-03-09 16:56:00,52.8,35.2,30.45,West,267,3.0,6.0,51,0.00,,,0.00,Wunderground v.1.15,2013-03-10 00:56:00,
2013-03-09 17:01:00,52.6,35.5,30.45,SW,232,4.0,4.0,52,0.00,,,0.00,Wunderground v.1.15,2013-03-10 01:01:00,
2013-03-09 17:07:00,52.3,33.2,30.46,West,281,4.0,7.0,48,0.00,,,0.00,Wunderground v.1.15,2013-03-10 01:07:00,
2013-03-09 17:12:00,52.0,34.9,30.46,WSW,247,4.0,5.0,52,0.00,,,0.00,Wunderground v.1.15,2013-03-10 01:12:00,
2013-03-09 17:17:00,51.7,34.1,30.46,West,267,3.0,5.0,51,0.00,,,0.00,Wunderground v.1.15,2013-03-10 01:17:00,
2013-03-09 17:22:00,51.4,33.9,30.46,SW,227,2.0,2.0,51,0.00,,,0.00,Wunderground v.1.15,2013-03-10 01:22:00,
2013-03-09 17:28:00,51.0,33.0,30.46,SW,232,2.0,5.0,50,0.00,,,0.00,Wunderground v.1.15,2013-03-10 01:28:00,
2013-03-09 17:33:00,50.7,32.7,30.46,SSW,212,3.0,4.0,50,0.00,,,0.00,Wunderground v.1.15,2013-03-10 01:33:00,
2013-03-09 17:38:00,50.6,32.1,30.46,SW,228,3.0,5.0,49,0.00,,,0.00,Wunderground v.1.15,2013-03-10 01:38:00,
2013-03-09 17:44:00,50.4,34.8,30.46,SW,234,2.0,3.0,55,0.00,,,0.00,Wunderground v.1.15,2013-03-10 01:44:00,
2013-03-09 17:49:00,50.1,35.0,30.47,SW,234,1.0,3.0,56,0.00,,,0.00,Wunderground v.1.15,2013-03-10 01:49:00,
2013-03-09 17:54:00,49.7,35.9,30.47,SW,234,0.0,1.0,59,0.00,,,0.00,Wunderground v.1.15,2013-03-10 01:54:00,
2013-03-09 17:59:00,49.1,36.2,30.47,SW,234,0.0,1.0,61,0.00,,,0.00,Wunderground v.1.15,2013-03-10 01:59:00,
2013-03-09 18:05:00,48.3,34.6,30.47,SW,234,0.0,0.0,59,0.00,,,0.00,Wunderground v.1.15,2013-03-10 02:05:00,
2013-03-09 18:11:00,47.7,36.1,30.47,SW,234,0.0,0.0,64,0.00,,,0.00,Wunderground v.1.15,2013-03-10 02:11:00,
2013-03-09 18:16:00,47.2,35.2,30.47,SW,234,0.0,0.0,63,0.00,,,0.00,Wunderground v.1.15,2013-03-10 02:16:00,
2013-03-09 18:21:00,46.7,35.6,30.47,SW,234,0.0,0.0,65,0.00,,,0.00,Wunderground v.1.15,2013-03-10 02:21:00,
2013-03-09 18:27:00,46.2,35.1,30.48,SW,234,0.0,0.0,65,0.00,,,0.00,Wunderground v.1.15,2013-03-10 02:27:00,
2013-03-09 18:32:00,45.8,34.7,30.48,SW,234,0.0,0.0,65,0.00,,,0.00,Wunderground v.1.15,2013-03-10 02:32:00,
2013-03-09 18:38:00,45.2,34.1,30.48,SW,234,0.0,0.0,65,0.00,,,0.00,Wunderground v.1.15,2013-03-10 02:38:00,
2013-03-09 18:43:00,44.7,35.1,30.48,SW,234,0.0,0.0,69,0.00,,,0.00,Wunderground v.1.15,2013-03-10 02:43:00,
2013-03-09 18:49:00,44.1,34.2,30.48,SW,234,0.0,0.0,68,0.00,,,0.00,Wunderground v.1.15,2013-03-10 02:49:00,
2013-03-09 18:55:00,43.6,34.8,30.48,SW,234,0.0,0.0,71,0.00,,,0.00,Wunderground v.1.15,2013-03-10 02:55:00,
2013-03-09 19:00:00,43.3,34.9,30.48,SW,234,0.0,0.0,72,0.00,,,0.00,Wunderground v.1.15,2013-03-10 03:00:00,
2013-03-09 19:05:00,43.0,34.6,30.48,SW,234,0.0,0.0,72,0.00,,,0.00,Wunderground v.1.15,2013-03-10 03:05:00,
2013-03-09 19:11:00,42.6,34.5,30.48,South,176,0.0,0.0,73,0.00,,,0.00,Wunderground v.1.15,2013-03-10 03:11:00,
2013-03-09 19:17:00,42.2,34.2,30.48,South,176,0.0,0.0,73,0.00,,,0.00,Wunderground v.1.15,2013-03-10 03:17:00,
2013-03-09 19:23:00,41.8,34.5,30.48,South,176,0.0,0.0,75,0.00,,,0.00,Wunderground v.1.15,2013-03-10 03:23:00,
2013-03-09 19:28:00,41.5,34.2,30.49,South,176,0.0,0.0,75,0.00,,,0.00,Wunderground v.1.15,2013-03-10 03:28:00,
2013-03-09 19:33:00,41.1,34.4,30.49,South,176,0.0,0.0,77,0.00,,,0.00,Wunderground v.1.15,2013-03-10 03:33:00,
2013-03-09 19:38:00,40.8,34.5,30.49,South,176,0.0,2.0,78,0.00,,,0.00,Wunderground v.1.15,2013-03-10 03:38:00,
2013-03-09 19:44:00,40.5,34.5,30.49,South,176,0.0,0.0,79,0.00,,,0.00,Wunderground v.1.15,2013-03-10 03:44:00,
2013-03-09 19:49:00,40.2,34.5,30.49,South,176,0.0,0.0,80,0.00,,,0.00,Wunderground v.1.15,2013-03-10 03:49:00,
2013-03-09 19:54:00,39.9,34.9,30.49,South,176,0.0,2.0,82,0.00,,,0.00,Wunderground v.1.15,2013-03-10 03:54:00,
2013-03-09 19:59:00,39.7,34.7,30.49,South,176,0.0,2.0,82,0.00,,,0.00,Wunderground v.1.15,2013-03-10 03:59:00,
2013-03-09 20:04:00,39.5,34.5,30.49,South,176,0.0,0.0,82,0.00,,,0.00,Wunderground v.1.15,2013-03-10 04:04:00,
2013-03-09 20:10:00,39.3,34.6,30.49,South,176,0.0,2.0,83,0.00,,,0.00,Wunderground v.1.15,2013-03-10 04:10:00,
2013-03-09 20:15:00,39.1,34.4,30.49,South,176,0.0,0.0,83,0.00,,,0.00,Wunderground v.1.15,2013-03-10 04:15:00,
2013-03-09 20:20:00,38.8,34.7,30.49,South,176,0.0,0.0,85,0.00,,,0.00,Wunderground v.1.15,2013-03-10 04:20:00,
2013-03-09 20:25:00,38.6,34.8,30.49,South,176,0.0,0.0,86,0.00,,,0.00,Wunderground v.1.15,2013-03-10 04:25:00,
2013-03-09 20:31:00,38.5,34.7,30.50,South,176,0.0,0.0,86,0.00,,,0.00,Wunderground v.1.15,2013-03-10 04:31:00,
2013-03-09 20:37:00,38.3,34.5,30.50,South,176,0.0,1.0,86,0.00,,,0.00,Wunderground v.1.15,2013-03-10 04:37:00,
2013-03-09 20:43:00,38.2,34.7,30.50,South,175,1.0,1.0,87,0.00,,,0.00,Wunderground v.1.15,2013-03-10 04:43:00,
2013-03-09 20:48:00,38.0,34.8,30.50,South,175,1.0,4.0,88,0.00,,,0.00,Wunderground v.1.15,2013-03-10 04:48:00,
2013-03-09 20:53:00,37.9,34.7,30.50,South,175,1.0,1.0,88,0.00,,,0.00,Wunderground v.1.15,2013-03-10 04:53:00,
2013-03-09 20:58:00,37.8,34.6,30.50,South,175,0.0,1.0,88,0.00,,,0.00,Wunderground v.1.15,2013-03-10 04:58:00,
2013-03-09 21:00:00,37.7,34.5,30.50,South,175,0.0,4.0,88,0.00,,,0.00,Wunderground v.1.15,2013-03-10 05:00:00,
2013-03-09 21:02:00,37.7,34.8,30.50,SSE,164,1.0,1.0,89,0.00,,,0.00,Wunderground v.1.15,2013-03-10 05:02:00,
2013-03-09 21:03:00,37.7,34.8,30.50,SSE,164,1.0,1.0,89,0.00,,,0.00,Wunderground v.1.15,2013-03-10 05:03:00,
2013-03-09 21:08:00,37.6,34.7,30.50,ESE,111,1.0,4.0,89,0.00,,,0.00,Wunderground v.1.15,2013-03-10 05:08:00,
2013-03-09 21:11:00,37.5,34.6,30.50,ESE,111,1.0,1.0,89,0.00,,,0.00,Wunderground v.1.15,2013-03-10 05:11:00,
2013-03-09 21:16:00,37.4,34.5,30.50,West,260,1.0,3.0,89,0.00,,,0.00,Wunderground v.1.15,2013-03-10 05:16:00,
2013-03-09 21:21:00,37.6,34.4,30.50,West,260,1.0,1.0,88,0.00,,,0.00,Wunderground v.1.15,2013-03-10 05:21:00,
2013-03-09 21:26:00,37.8,34.6,30.50,West,260,1.0,1.0,88,0.00,,,0.00,Wunderground v.1.15,2013-03-10 05:26:00,
2013-03-09 21:32:00,37.8,34.3,30.50,West,260,0.0,0.0,87,0.00,,,0.00,Wunderground v.1.15,2013-03-10 05:32:00,
2013-03-09 21:37:00,37.7,34.2,30.50,West,260,0.0,0.0,87,0.00,,,0.00,Wunderground v.1.15,2013-03-10 05:37:00,
2013-03-09 21:43:00,37.5,34.0,30.50,West,260,0.0,0.0,87,0.00,,,0.00,Wunderground v.1.15,2013-03-10 05:43:00,
2013-03-09 21:48:00,37.3,34.1,30.51,West,260,0.0,2.0,88,0.00,,,0.00,Wunderground v.1.15,2013-03-10 05:48:00,
2013-03-09 21:53:00,37.1,34.2,30.51,West,260,1.0,2.0,89,0.00,,,0.00,Wunderground v.1.15,2013-03-10 05:53:00,
2013-03-09 21:59:00,36.9,34.0,30.50,West,260,1.0,2.0,89,0.00,,,0.00,Wunderground v.1.15,2013-03-10 05:59:00,
2013-03-09 22:05:00,36.6,33.7,30.50,West,260,0.0,0.0,89,0.00,,,0.00,Wunderground v.1.15,2013-03-10 06:05:00,
2013-03-09 22:10:00,36.5,33.6,30.50,West,260,0.0,2.0,89,0.00,,,0.00,Wunderground v.1.15,2013-03-10 06:10:00,
2013-03-09 22:15:00,36.2,33.3,30.50,West,260,1.0,1.0,89,0.00,,,0.00,Wunderground v.1.15,2013-03-10 06:15:00,
2013-03-09 22:20:00,36.0,33.4,30.51,West,260,1.0,2.0,90,0.00,,,0.00,Wunderground v.1.15,2013-03-10 06:20:00,
2013-03-09 22:25:00,35.8,33.2,30.51,South,178,1.0,1.0,90,0.00,,,0.00,Wunderground v.1.15,2013-03-10 06:25:00,
2013-03-09 22:32:00,35.6,33.2,30.51,South,178,0.0,0.0,91,0.00,,,0.00,Wunderground v.1.15,2013-03-10 06:32:00,
2013-03-09 22:37:00,35.5,33.1,30.51,South,178,0.0,0.0,91,0.00,,,0.00,Wunderground v.1.15,2013-03-10 06:37:00,
2013-03-09 22:42:00,35.3,32.9,30.51,South,178,0.0,0.0,91,0.00,,,0.00,Wunderground v.1.15,2013-03-10 06:42:00,
2013-03-09 22:47:00,35.1,32.7,30.50,South,178,0.0,0.0,91,0.00,,,0.00,Wunderground v.1.15,2013-03-10 06:47:00,
2013-03-09 22:53:00,35.0,32.9,30.51,South,178,0.0,0.0,92,0.00,,,0.00,Wunderground v.1.15,2013-03-10 06:53:00,
2013-03-09 22:58:00,34.8,32.7,30.51,South,175,0.0,4.0,92,0.00,,,0.00,Wunderground v.1.15,2013-03-10 06:58:00,
2013-03-09 23:03:00,34.7,32.6,30.50,South,175,1.0,1.0,92,0.00,,,0.00,Wunderground v.1.15,2013-03-10 07:03:00,
2013-03-09 23:08:00,34.6,32.5,30.50,South,175,1.0,2.0,92,0.00,,,0.00,Wunderground v.1.15,2013-03-10 07:08:00,
2013-03-09 23:14:00,34.5,32.7,30.51,South,175,1.0,2.0,93,0.00,,,0.00,Wunderground v.1.15,2013-03-10 07:14:00,
2013-03-09 23:19:00,34.4,32.6,30.51,South,175,1.0,2.0,93,0.00,,,0.00,Wunderground v.1.15,2013-03-10 07:19:00,
2013-03-09 23:24:00,34.3,32.5,30.51,South,175,0.0,2.0,93,0.00,,,0.00,Wunderground v.1.15,2013-03-10 07:24:00,
2013-03-09 23:29:00,34.3,32.8,30.50,South,175,1.0,2.0,94,0.00,,,0.00,Wunderground v.1.15,2013-03-10 07:29:00,
2013-03-09 23:35:00,34.3,32.8,30.51,South,175,1.0,1.0,94,0.00,,,0.00,Wunderground v.1.15,2013-03-10 07:35:00,
2013-03-09 23:40:00,34.2,32.7,30.50,South,175,0.0,0.0,94,0.00,,,0.00,Wunderground v.1.15,2013-03-10 07:40:00,
2013-03-09 23:45:00,34.2,32.7,30.50,South,175,0.0,0.0,94,0.00,,,0.00,Wunderground v.1.15,2013-03-10 07:45:00,
2013-03-09 23:50:00,34.1,32.6,30.51,South,175,0.0,0.0,94,0.00,,,0.00,Wunderground v.1.15,2013-03-10 07:50:00,
2013-03-09 23:56:00,34.1,32.6,30.50,South,175,0.0,0.0,94,0.00,,,0.00,Wunderground v.1.15,2013-03-10 07:56:00,